createdAt,value
2018-12-26T00:00:28.649Z,12.90
2018-12-26T00:02:58.457Z,15.93
2018-12-26T00:05:28.299Z,14.70
2018-12-26T00:07:58.083Z,15.43
2018-12-26T00:10:27.907Z,13.43
2018-12-26T00:12:57.619Z,11.47
2018-12-26T00:15:27.350Z,12.17
2018-12-26T00:17:57.187Z,13.43
2018-12-26T00:20:27.399Z,13.17
2018-12-26T00:22:57.357Z,12.60
2018-12-26T00:25:27.287Z,13.20
2018-12-26T00:27:57.094Z,11.03
2018-12-26T00:30:27.063Z,13.37
2018-12-26T00:32:56.841Z,10.50
2018-12-26T00:35:26.489Z,11.93
2018-12-26T00:37:56.243Z,11.40
2018-12-26T00:40:26.043Z,11.07
2018-12-26T00:42:55.759Z,11.33
2018-12-26T00:45:25.453Z,12.37
2018-12-26T00:47:55.191Z,11.93
2018-12-26T00:50:24.864Z,12.30
2018-12-26T00:52:54.590Z,12.33
2018-12-26T00:55:24.298Z,12.37
2018-12-26T00:57:54.010Z,12.10
2018-12-26T01:00:23.714Z,12.87
2018-12-26T01:02:53.439Z,12.53
2018-12-26T01:05:23.215Z,11.40
2018-12-26T01:07:55.421Z,11.20
2018-12-26T01:10:24.383Z,11.33
2018-12-26T01:12:54.159Z,12.57
2018-12-26T01:15:23.875Z,12.97
2018-12-26T01:17:53.652Z,12.40
2018-12-26T01:20:23.361Z,11.53
2018-12-26T01:22:53.070Z,15.33
2018-12-26T01:25:22.754Z,13.60
2018-12-26T01:27:52.490Z,14.60
2018-12-26T01:30:22.163Z,13.53
2018-12-26T01:32:51.906Z,13.13
2018-12-26T01:35:21.584Z,15.63
2018-12-26T01:37:51.337Z,13.23
2018-12-26T01:40:21.019Z,14.17
2018-12-26T01:42:50.770Z,15.90
2018-12-26T01:45:20.435Z,14.37
2018-12-26T01:47:50.291Z,15.07
2018-12-26T01:50:19.926Z,14.73
2018-12-26T01:52:49.709Z,13.40
2018-12-26T01:55:19.430Z,15.47
2018-12-26T01:57:49.426Z,18.10
2018-12-26T02:00:19.098Z,15.40
2018-12-26T02:02:48.815Z,14.37
2018-12-26T02:05:18.611Z,14.73
2018-12-26T02:07:48.361Z,14.83
2018-12-26T02:10:18.074Z,14.80
2018-12-26T02:12:47.758Z,14.63
2018-12-26T02:15:17.572Z,16.47
2018-12-26T02:17:47.290Z,15.77
2018-12-26T02:20:17.017Z,15.07
2018-12-26T02:22:46.689Z,15.07
2018-12-26T02:25:16.422Z,16.20
2018-12-26T02:27:46.101Z,15.83
2018-12-26T02:30:15.835Z,15.23
2018-12-26T02:32:45.612Z,16.27
2018-12-26T02:35:15.371Z,15.80
2018-12-26T02:37:45.075Z,19.70
2018-12-26T02:40:14.794Z,16.17
2018-12-26T02:42:44.469Z,15.40
2018-12-26T02:45:14.300Z,16.53
2018-12-26T02:47:44.050Z,15.47
2018-12-26T02:50:13.826Z,15.63
2018-12-26T02:52:43.580Z,15.13
2018-12-26T02:55:13.247Z,16.57
2018-12-26T02:57:42.946Z,16.07
2018-12-26T03:00:12.662Z,15.73
2018-12-26T03:02:42.369Z,16.93
2018-12-26T03:05:12.107Z,16.03
2018-12-26T03:07:41.786Z,14.77
2018-12-26T03:10:11.515Z,17.03
2018-12-26T03:12:41.298Z,16.03
2018-12-26T03:15:11.024Z,15.87
2018-12-26T03:17:40.821Z,17.10
2018-12-26T03:20:10.543Z,17.00
2018-12-26T03:22:40.260Z,16.40
2018-12-26T03:25:09.951Z,16.00
2018-12-26T03:27:39.678Z,14.37
2018-12-26T03:30:09.447Z,17.00
2018-12-26T03:32:39.184Z,16.60
2018-12-26T03:35:08.910Z,17.53
2018-12-26T03:37:38.595Z,17.03
2018-12-26T03:40:08.977Z,15.90
2018-12-26T03:42:38.656Z,16.17
2018-12-26T03:45:08.513Z,16.77
2018-12-26T03:47:38.460Z,14.83
2018-12-26T03:50:08.650Z,16.90
2018-12-26T03:52:38.393Z,16.03
2018-12-26T03:55:08.140Z,16.80
2018-12-26T03:57:37.865Z,15.60
2018-12-26T04:00:08.199Z,16.30
2018-12-26T04:02:37.859Z,14.73
2018-12-26T04:05:07.598Z,15.10
2018-12-26T04:07:37.462Z,15.83
2018-12-26T04:10:07.212Z,15.30
2018-12-26T04:12:36.970Z,15.60
2018-12-26T04:15:06.921Z,15.90
2018-12-26T04:17:36.745Z,16.20
2018-12-26T04:20:06.603Z,16.03
2018-12-26T04:22:36.439Z,15.47
2018-12-26T04:25:07.509Z,14.77
2018-12-26T04:27:37.267Z,16.50
2018-12-26T04:30:08.511Z,16.80
2018-12-26T04:32:38.185Z,15.70
2018-12-26T04:35:07.915Z,15.07
2018-12-26T04:37:37.618Z,16.33
2018-12-26T04:40:07.380Z,14.27
2018-12-26T04:42:38.138Z,14.57
2018-12-26T04:45:07.879Z,16.00
2018-12-26T04:47:37.550Z,15.83
2018-12-26T04:50:07.288Z,16.03
2018-12-26T04:52:36.986Z,15.73
2018-12-26T04:55:06.806Z,13.87
2018-12-26T04:57:36.482Z,14.50
2018-12-26T05:00:07.103Z,14.00
2018-12-26T05:02:36.844Z,14.43
2018-12-26T05:05:06.585Z,15.63
2018-12-26T05:07:36.251Z,15.07
2018-12-26T05:10:06.416Z,14.37
2018-12-26T05:12:36.071Z,14.47
2018-12-26T05:15:05.802Z,13.57
2018-12-26T05:17:35.496Z,12.70
2018-12-26T05:20:05.332Z,13.63
2018-12-26T05:22:35.009Z,12.37
2018-12-26T05:25:05.063Z,13.23
2018-12-26T05:27:34.762Z,13.30
2018-12-26T05:30:04.793Z,12.47
2018-12-26T05:32:34.467Z,12.07
2018-12-26T05:35:04.311Z,13.13
2018-12-26T05:37:34.009Z,13.43
2018-12-26T05:40:03.850Z,12.53
2018-12-26T05:42:33.510Z,13.20
2018-12-26T05:45:03.267Z,13.03
2018-12-26T05:47:32.951Z,13.13
2018-12-26T05:50:02.695Z,13.23
2018-12-26T05:52:32.359Z,13.77
2018-12-26T05:55:02.098Z,14.50
2018-12-26T05:57:31.780Z,13.57
2018-12-26T06:00:01.521Z,13.27
2018-12-26T06:02:31.201Z,12.50
2018-12-26T06:05:00.986Z,12.67
2018-12-26T06:07:30.794Z,13.63
2018-12-26T06:10:00.558Z,13.37
2018-12-26T06:12:31.851Z,12.57
2018-12-26T06:15:01.625Z,13.73
2018-12-26T06:17:31.305Z,12.60
2018-12-26T06:20:01.285Z,13.07
2018-12-26T06:22:34.030Z,13.63
2018-12-26T06:25:03.750Z,13.47
2018-12-26T06:27:33.407Z,13.70
2018-12-26T06:30:03.181Z,13.00
2018-12-26T06:32:32.831Z,13.13
2018-12-26T06:35:02.564Z,13.60
2018-12-26T06:37:32.950Z,11.47
2018-12-26T06:40:02.685Z,13.17
2018-12-26T06:42:32.591Z,11.63
2018-12-26T06:45:02.344Z,12.47
2018-12-26T06:47:32.006Z,12.87
2018-12-26T06:50:02.255Z,13.07
2018-12-26T06:52:31.933Z,12.23
2018-12-26T06:55:01.730Z,12.43
2018-12-26T06:57:31.477Z,13.20
2018-12-26T07:00:01.220Z,13.00
2018-12-26T07:02:30.882Z,13.83
2018-12-26T07:05:00.947Z,12.73
2018-12-26T07:07:30.646Z,12.47
2018-12-26T07:10:00.355Z,11.80
2018-12-26T07:12:30.076Z,11.67
2018-12-26T07:14:59.755Z,11.83
2018-12-26T07:17:29.475Z,11.83
2018-12-26T07:19:59.207Z,10.80
2018-12-26T07:22:28.882Z,11.17
2018-12-26T07:24:58.529Z,11.27
2018-12-26T07:27:28.329Z,11.63
2018-12-26T07:29:57.999Z,10.93
2018-12-26T07:32:27.755Z,10.93
2018-12-26T07:34:57.418Z,11.43
2018-12-26T07:37:27.188Z,12.47
2018-12-26T07:39:56.842Z,12.33
2018-12-26T07:42:26.577Z,10.73
2018-12-26T07:44:56.373Z,10.23
2018-12-26T07:47:26.151Z,9.50
2018-12-26T07:49:55.907Z,10.20
2018-12-26T07:52:25.626Z,10.33
2018-12-26T07:54:55.310Z,10.33
2018-12-26T07:57:25.075Z,10.00
2018-12-26T07:59:54.751Z,8.80
2018-12-26T08:02:24.482Z,9.40
2018-12-26T08:04:54.171Z,9.60
2018-12-26T08:07:23.892Z,10.37
2018-12-26T08:09:53.558Z,10.50
2018-12-26T08:12:23.327Z,10.63
2018-12-26T08:14:53.030Z,9.87
2018-12-26T08:17:24.203Z,9.67
2018-12-26T08:19:53.951Z,9.93
2018-12-26T08:22:23.660Z,10.67
2018-12-26T08:24:53.390Z,10.37
2018-12-26T08:27:23.067Z,10.43
2018-12-26T08:29:52.826Z,10.47
2018-12-26T08:32:22.486Z,10.10
2018-12-26T08:34:52.210Z,10.83
2018-12-26T08:37:21.941Z,10.17
2018-12-26T08:39:51.630Z,10.30
2018-12-26T08:42:21.363Z,10.27
2018-12-26T08:44:51.072Z,10.73
2018-12-26T08:47:20.766Z,10.60
2018-12-26T08:49:50.467Z,9.87
2018-12-26T08:52:20.263Z,10.80
2018-12-26T08:54:50.220Z,10.77
2018-12-26T08:57:19.935Z,9.37
2018-12-26T08:59:49.617Z,10.67
2018-12-26T09:02:21.931Z,9.87
2018-12-26T09:04:51.615Z,9.13
2018-12-26T09:07:21.353Z,9.63
2018-12-26T09:09:51.328Z,10.13
2018-12-26T09:12:21.042Z,9.77
2018-12-26T09:14:50.744Z,11.03
2018-12-26T09:17:20.491Z,9.67
2018-12-26T09:19:50.176Z,9.37
2018-12-26T09:22:20.057Z,9.70
2018-12-26T09:24:49.799Z,9.40
2018-12-26T09:27:19.526Z,10.13
2018-12-26T09:29:49.218Z,10.80
2018-12-26T09:32:19.050Z,9.37
2018-12-26T09:34:48.734Z,10.00
2018-12-26T09:37:18.540Z,9.83
2018-12-26T09:39:48.375Z,10.33
2018-12-26T09:42:18.094Z,9.70
2018-12-26T09:44:54.303Z,10.33
2018-12-26T09:47:19.215Z,10.83
2018-12-26T09:49:48.961Z,10.47
2018-12-26T09:52:18.638Z,10.83
2018-12-26T09:54:49.344Z,11.10
2018-12-26T09:57:19.187Z,11.53
2018-12-26T09:59:48.931Z,11.93
2018-12-26T10:02:18.620Z,10.63
2018-12-26T10:04:50.424Z,10.70
2018-12-26T10:07:20.201Z,14.43
2018-12-26T10:09:49.906Z,12.80
2018-12-26T10:12:19.604Z,13.90
2018-12-26T10:14:49.314Z,11.20
2018-12-26T10:17:19.028Z,11.90
2018-12-26T10:19:50.233Z,12.10
2018-12-26T10:22:20.109Z,12.37
2018-12-26T10:24:49.806Z,12.33
2018-12-26T10:27:19.509Z,11.70
2018-12-26T10:29:49.295Z,11.17
2018-12-26T10:32:19.036Z,11.60
2018-12-26T10:34:48.746Z,12.30
2018-12-26T10:37:18.444Z,10.67
2018-12-26T10:39:48.155Z,11.83
2018-12-26T10:42:17.905Z,11.20
2018-12-26T10:44:47.554Z,11.37
2018-12-26T10:47:17.479Z,12.17
2018-12-26T10:49:47.186Z,12.07
2018-12-26T10:52:16.957Z,12.50
2018-12-26T10:54:46.704Z,13.87
2018-12-26T10:57:16.539Z,12.80
2018-12-26T10:59:47.778Z,14.53
2018-12-26T11:02:17.507Z,14.00
2018-12-26T11:04:48.648Z,14.73
2018-12-26T11:07:18.467Z,14.40
2018-12-26T11:09:48.155Z,14.77
2018-12-26T11:12:18.596Z,12.20
2018-12-26T11:14:48.401Z,14.70
2018-12-26T11:17:19.486Z,13.67
2018-12-26T11:19:49.159Z,22.70
2018-12-26T11:22:18.915Z,17.63
2018-12-26T11:24:48.705Z,13.60
2018-12-26T11:27:18.362Z,19.43
2018-12-26T11:29:48.166Z,17.97
2018-12-26T11:32:17.896Z,19.40
2018-12-26T11:34:47.623Z,17.47
2018-12-26T11:37:17.355Z,17.13
2018-12-26T11:39:47.451Z,17.17
2018-12-26T11:42:17.122Z,14.30
2018-12-26T11:44:46.862Z,17.90
2018-12-26T11:47:16.554Z,13.97
2018-12-26T11:49:46.284Z,14.80
2018-12-26T11:52:15.950Z,14.07
2018-12-26T11:54:45.731Z,13.63
2018-12-26T11:57:17.715Z,12.63
2018-12-26T11:59:46.839Z,11.93
2018-12-26T12:02:20.540Z,12.53
2018-12-26T12:04:46.802Z,12.37
2018-12-26T12:07:15.845Z,15.37
2018-12-26T12:09:44.930Z,13.67
2018-12-26T12:12:14.001Z,15.07
2018-12-26T12:14:43.051Z,19.53
2018-12-26T12:17:12.131Z,19.47
2018-12-26T12:19:41.307Z,13.73
2018-12-26T12:22:10.377Z,28.57
2018-12-26T12:24:39.371Z,24.10
2018-12-26T12:27:08.422Z,38.73
2018-12-26T12:29:37.517Z,15.30
2018-12-26T12:32:06.903Z,21.63
2018-12-26T12:34:35.894Z,18.00
2018-12-26T12:37:04.869Z,14.13
2018-12-26T12:39:33.892Z,13.57
2018-12-26T12:42:02.939Z,13.57
2018-12-26T12:44:31.983Z,13.47
2018-12-26T12:47:00.974Z,12.67
2018-12-26T12:49:30.066Z,12.10
2018-12-26T12:51:59.147Z,12.90
2018-12-26T12:54:28.165Z,13.07
2018-12-26T12:56:57.229Z,13.50
2018-12-26T12:59:26.239Z,15.53
2018-12-26T13:01:55.233Z,13.83
2018-12-26T13:04:24.238Z,13.40
2018-12-26T13:06:53.260Z,14.33
2018-12-26T13:09:22.339Z,14.50
2018-12-26T13:11:51.450Z,13.37
2018-12-26T13:14:20.506Z,12.50
2018-12-26T13:16:49.502Z,14.27
2018-12-26T13:19:18.505Z,15.53
2018-12-26T13:21:47.578Z,13.97
2018-12-26T13:24:16.620Z,16.70
2018-12-26T13:26:45.790Z,14.60
2018-12-26T13:29:14.875Z,14.97
2018-12-26T13:31:43.966Z,16.23
2018-12-26T13:34:13.041Z,15.83
2018-12-26T13:36:42.067Z,15.77
2018-12-26T13:39:11.145Z,14.70
2018-12-26T13:41:40.152Z,14.60
2018-12-26T13:44:09.225Z,14.63
2018-12-26T13:46:38.243Z,15.50
2018-12-26T13:49:07.323Z,15.67
2018-12-26T13:51:36.416Z,14.07
2018-12-26T13:54:05.901Z,15.03
2018-12-26T13:56:35.156Z,14.50
2018-12-26T13:59:04.311Z,15.40
2018-12-26T14:01:33.488Z,15.60
2018-12-26T14:04:02.515Z,14.87
2018-12-26T14:06:31.698Z,13.73
2018-12-26T14:09:01.182Z,12.57
2018-12-26T14:11:30.651Z,12.37
2018-12-26T14:14:00.353Z,14.97
2018-12-26T14:16:30.686Z,15.50
2018-12-26T14:19:00.017Z,15.77
2018-12-26T14:21:29.055Z,19.03
2018-12-26T14:23:58.034Z,13.93
2018-12-26T14:26:27.135Z,16.87
2018-12-26T14:28:56.214Z,15.17
2018-12-26T14:31:25.244Z,19.50
2018-12-26T14:33:54.221Z,38.07
2018-12-26T14:36:23.339Z,28.93
2018-12-26T14:38:52.414Z,16.97
2018-12-26T14:41:21.435Z,13.00
2018-12-26T14:43:50.493Z,11.80
2018-12-26T14:46:19.512Z,12.83
2018-12-26T14:48:48.596Z,12.43
2018-12-26T14:51:26.217Z,13.17
2018-12-26T14:53:48.416Z,12.27
2018-12-26T14:56:17.428Z,13.13
2018-12-26T14:58:46.552Z,12.57
2018-12-26T15:01:15.681Z,12.57
2018-12-26T15:03:44.698Z,12.07
2018-12-26T15:06:13.700Z,12.47
2018-12-26T15:08:42.785Z,13.57
2018-12-26T15:11:11.856Z,13.90
2018-12-26T15:13:41.892Z,13.23
2018-12-26T15:16:11.004Z,13.30
2018-12-26T15:18:40.192Z,13.93
2018-12-26T15:21:09.330Z,15.13
2018-12-26T15:23:38.422Z,14.77
2018-12-26T15:26:07.402Z,14.67
2018-12-26T15:28:36.463Z,15.43
2018-12-26T15:31:05.493Z,15.10
2018-12-26T15:33:34.583Z,16.17
2018-12-26T15:36:04.484Z,14.97
2018-12-26T15:38:33.583Z,15.40
2018-12-26T15:41:02.743Z,15.03
2018-12-26T15:43:31.786Z,16.10
2018-12-26T15:46:01.233Z,15.60
2018-12-26T15:48:30.256Z,14.80
2018-12-26T15:50:59.257Z,15.33
2018-12-26T15:53:28.351Z,14.13
2018-12-26T15:55:57.342Z,16.20
2018-12-26T15:58:26.371Z,15.07
2018-12-26T16:00:55.533Z,16.03
2018-12-26T16:03:24.632Z,15.23
2018-12-26T16:05:53.721Z,16.13
2018-12-26T16:08:22.724Z,16.87
2018-12-26T16:10:51.921Z,16.93
2018-12-26T16:13:21.549Z,16.77
2018-12-26T16:15:52.771Z,16.40
2018-12-26T16:18:21.358Z,15.37
2018-12-26T16:20:50.320Z,16.23
2018-12-26T16:23:38.423Z,15.83
2018-12-26T16:26:07.925Z,16.33
2018-12-26T16:28:37.271Z,18.37
2018-12-26T16:31:06.634Z,17.90
2018-12-26T16:33:35.895Z,17.00
2018-12-26T16:36:05.100Z,17.70
2018-12-26T16:38:34.882Z,15.60
2018-12-26T16:41:04.531Z,17.67
2018-12-26T16:43:34.687Z,18.60
2018-12-26T16:46:03.877Z,20.93
2018-12-26T16:48:33.388Z,17.67
2018-12-26T16:51:02.525Z,21.33
2018-12-26T16:53:31.749Z,19.13
2018-12-26T16:56:00.997Z,18.73
2018-12-26T16:58:30.238Z,18.23
2018-12-26T17:00:59.488Z,21.23
2018-12-26T17:03:29.872Z,17.77
2018-12-26T17:05:59.747Z,18.47
2018-12-26T17:08:28.931Z,17.67
2018-12-26T17:10:58.081Z,17.80
2018-12-26T17:13:27.191Z,17.80
2018-12-26T17:15:56.274Z,17.87
2018-12-26T17:18:25.538Z,17.57
2018-12-26T17:20:54.614Z,17.00
2018-12-26T17:23:23.957Z,19.00
2018-12-26T17:25:53.197Z,19.10
2018-12-26T17:28:22.490Z,18.17
2018-12-26T17:30:51.962Z,20.40
2018-12-26T17:33:21.308Z,18.57
2018-12-26T17:35:50.332Z,19.20
2018-12-26T17:38:19.727Z,20.40
2018-12-26T17:40:49.016Z,21.20
2018-12-26T17:43:18.246Z,20.20
2018-12-26T17:45:47.286Z,17.07
2018-12-26T17:48:16.538Z,19.33
2018-12-26T17:50:52.034Z,18.97
2018-12-26T17:53:23.693Z,21.27
2018-12-26T17:56:17.936Z,19.73
2018-12-26T17:58:49.918Z,18.77
2018-12-26T18:01:44.396Z,20.07
2018-12-26T18:04:13.809Z,19.97
2018-12-26T18:06:43.120Z,19.80
2018-12-26T18:09:12.246Z,17.97
2018-12-26T18:11:41.647Z,19.50
2018-12-26T18:14:10.882Z,18.20
2018-12-26T18:16:40.015Z,19.37
2018-12-26T18:19:09.134Z,20.53
2018-12-26T18:21:38.219Z,20.20
2018-12-26T18:24:07.264Z,20.43
2018-12-26T18:26:36.379Z,19.97
2018-12-26T18:29:05.519Z,19.70
2018-12-26T18:31:36.744Z,19.10
2018-12-26T18:34:05.554Z,18.30
2018-12-26T18:36:34.767Z,19.47
2018-12-26T18:39:06.068Z,20.10
2018-12-26T18:41:35.266Z,18.97
2018-12-26T18:44:04.537Z,21.30
2018-12-26T18:46:33.763Z,23.33
2018-12-26T18:49:04.019Z,19.63
2018-12-26T18:51:33.203Z,17.97
2018-12-26T18:54:02.214Z,18.30
2018-12-26T18:56:31.415Z,17.90
2018-12-26T18:59:01.546Z,19.37
2018-12-26T19:01:30.990Z,19.80
2018-12-26T19:04:00.144Z,21.30
2018-12-26T19:06:29.250Z,18.83
2018-12-26T19:08:58.436Z,17.97
2018-12-26T19:11:27.503Z,19.87
2018-12-26T19:13:56.624Z,19.23
2018-12-26T19:16:25.694Z,20.17
2018-12-26T19:18:54.766Z,22.00
2018-12-26T19:21:23.888Z,21.20
2018-12-26T19:23:53.134Z,19.17
2018-12-26T19:26:22.329Z,20.53
2018-12-26T19:28:51.495Z,21.43
2018-12-26T19:31:20.624Z,20.93
2018-12-26T19:33:49.894Z,19.43
2018-12-26T19:36:18.936Z,20.73
2018-12-26T19:38:48.069Z,20.77
2018-12-26T19:41:17.252Z,22.43
2018-12-26T19:43:46.515Z,22.83
2018-12-26T19:46:15.582Z,20.30
2018-12-26T19:48:44.704Z,20.80
2018-12-26T19:51:13.941Z,21.20
2018-12-26T19:53:43.095Z,20.17
2018-12-26T19:56:12.458Z,19.93
2018-12-26T19:58:41.782Z,20.20
2018-12-26T20:01:11.033Z,20.03
2018-12-26T20:03:40.306Z,20.07
2018-12-26T20:06:10.642Z,19.77
2018-12-26T20:08:39.751Z,20.93
2018-12-26T20:11:10.065Z,20.03
2018-12-26T20:13:39.182Z,18.70
2018-12-26T20:16:08.347Z,19.00
2018-12-26T20:18:37.590Z,20.67
2018-12-26T20:21:06.703Z,20.57
2018-12-26T20:23:35.759Z,21.07
2018-12-26T20:26:04.905Z,20.93
2018-12-26T20:28:34.040Z,20.27
2018-12-26T20:31:03.286Z,21.10
2018-12-26T20:33:32.552Z,21.67
2018-12-26T20:36:01.649Z,22.03
2018-12-26T20:38:30.961Z,20.70
2018-12-26T20:41:00.125Z,20.63
2018-12-26T20:43:29.363Z,21.60
2018-12-26T20:45:58.636Z,20.13
2018-12-26T20:48:27.781Z,21.23
2018-12-26T20:50:56.907Z,21.17
2018-12-26T20:53:26.116Z,20.83
2018-12-26T20:55:55.231Z,18.97
2018-12-26T20:58:24.582Z,21.40
2018-12-26T21:00:53.958Z,20.00
2018-12-26T21:03:23.087Z,20.90
2018-12-26T21:05:52.269Z,21.10
2018-12-26T21:08:21.338Z,21.33
2018-12-26T21:10:51.524Z,23.33
2018-12-26T21:13:20.719Z,25.67
2018-12-26T21:15:49.823Z,21.90
2018-12-26T21:18:19.079Z,22.27
2018-12-26T21:20:49.536Z,21.13
2018-12-26T21:23:18.799Z,21.17
2018-12-26T21:25:48.141Z,22.00
2018-12-26T21:28:17.388Z,22.70
2018-12-26T21:30:46.496Z,23.73
2018-12-26T21:33:15.693Z,22.73
2018-12-26T21:35:45.038Z,21.27
2018-12-26T21:38:14.357Z,25.23
2018-12-26T21:40:43.594Z,24.33
2018-12-26T21:43:12.614Z,22.07
2018-12-26T21:45:41.714Z,22.47
2018-12-26T21:48:10.792Z,22.07
2018-12-26T21:50:39.798Z,24.27
2018-12-26T21:53:08.948Z,22.73
2018-12-26T21:55:39.098Z,25.47
2018-12-26T21:58:08.089Z,21.97
2018-12-26T22:00:37.101Z,23.67
2018-12-26T22:03:06.279Z,24.93
2018-12-26T22:05:35.301Z,22.70
2018-12-26T22:08:04.408Z,22.90
2018-12-26T22:10:33.500Z,24.27
2018-12-26T22:13:02.688Z,23.40
2018-12-26T22:15:31.762Z,25.63
2018-12-26T22:18:01.075Z,24.73
2018-12-26T22:20:30.731Z,23.77
2018-12-26T22:22:59.794Z,23.97
2018-12-26T22:25:28.874Z,22.87
2018-12-26T22:27:58.007Z,23.93
2018-12-26T22:30:27.092Z,22.43
2018-12-26T22:32:56.163Z,24.43
2018-12-26T22:35:25.246Z,22.83
2018-12-26T22:37:54.306Z,24.43
2018-12-26T22:40:23.407Z,22.37
2018-12-26T22:42:52.663Z,21.57
2018-12-26T22:45:21.872Z,27.00
2018-12-26T22:47:51.042Z,24.23
2018-12-26T22:50:20.112Z,24.10
2018-12-26T22:52:49.237Z,30.17
2018-12-26T22:55:18.280Z,29.73
2018-12-26T22:57:47.314Z,27.83
2018-12-26T23:00:22.743Z,29.83
2018-12-26T23:02:51.777Z,26.93
2018-12-26T23:05:20.884Z,24.07
2018-12-26T23:07:49.883Z,24.97
2018-12-26T23:10:18.968Z,23.57
2018-12-26T23:12:48.077Z,24.80
2018-12-26T23:15:17.072Z,25.83
2018-12-26T23:17:46.086Z,25.10
2018-12-26T23:20:15.142Z,24.50
2018-12-26T23:22:44.257Z,25.67
2018-12-26T23:25:13.276Z,25.47
2018-12-26T23:27:42.321Z,24.83
2018-12-26T23:30:11.318Z,24.03
2018-12-26T23:32:47.084Z,24.60
2018-12-26T23:35:11.106Z,24.20
2018-12-26T23:37:40.178Z,24.20
2018-12-26T23:40:09.141Z,25.03
2018-12-26T23:42:38.235Z,24.10
2018-12-26T23:45:07.306Z,25.47
2018-12-26T23:47:36.292Z,23.27
2018-12-26T23:50:05.390Z,24.87
2018-12-26T23:52:34.464Z,26.57
2018-12-26T23:55:03.602Z,24.30
2018-12-26T23:57:32.701Z,25.47
